sensor_id;sensor_type;location;lat;lon;timestamp;pressure;altitude;pressure_sealevel;temperature;humidity
30724;BME280;17473;52.286;20.930;2023-04-27T00:01:42;100296.28;;;4.99;68.35
30724;BME280;17473;52.286;20.930;2023-04-27T00:04:09;100311.81;;;5.12;68.09
30724;BME280;17473;52.286;20.930;2023-04-27T00:06:37;100304.78;;;5.11;68.46
30724;BME280;17473;52.286;20.930;2023-04-27T00:09:04;100312.97;;;5.01;68.45
30724;BME280;17473;52.286;20.930;2023-04-27T00:11:31;100316.97;;;4.94;68.79
30724;BME280;17473;52.286;20.930;2023-04-27T00:13:58;100315.34;;;4.96;68.87
30724;BME280;17473;52.286;20.930;2023-04-27T00:16:25;100319.50;;;4.93;69.13
30724;BME280;17473;52.286;20.930;2023-04-27T00:18:52;100315.41;;;4.98;69.14
30724;BME280;17473;52.286;20.930;2023-04-27T00:21:19;100316.97;;;4.94;69.26
30724;BME280;17473;52.286;20.930;2023-04-27T00:23:46;100319.50;;;4.93;69.15
30724;BME280;17473;52.286;20.930;2023-04-27T00:26:14;100313.69;;;4.98;69.03
30724;BME280;17473;52.286;20.930;2023-04-27T00:28:41;100314.56;;;4.82;69.79
30724;BME280;17473;52.286;20.930;2023-04-27T00:31:08;100310.41;;;4.86;69.62
30724;BME280;17473;52.286;20.930;2023-04-27T00:33:35;100316.97;;;4.94;69.50
30724;BME280;17473;52.286;20.930;2023-04-27T00:36:02;100317.84;;;4.95;69.74
30724;BME280;17473;52.286;20.930;2023-04-27T00:38:29;100311.97;;;4.82;69.83
30724;BME280;17473;52.286;20.930;2023-04-27T00:41:06;100321.44;;;4.80;69.93
30724;BME280;17473;52.286;20.930;2023-04-27T00:43:42;100319.56;;;4.78;69.87
30724;BME280;17473;52.286;20.930;2023-04-27T00:46:12;100323.56;;;4.88;69.61
30724;BME280;17473;52.286;20.930;2023-04-27T00:48:40;100321.09;;;4.74;70.31
30724;BME280;17473;52.286;20.930;2023-04-27T00:51:07;100324.69;;;4.76;70.16
30724;BME280;17473;52.286;20.930;2023-04-27T00:53:36;100330.31;;;4.67;70.71
30724;BME280;17473;52.286;20.930;2023-04-27T00:56:06;100325.25;;;4.70;70.90
30724;BME280;17473;52.286;20.930;2023-04-27T00:58:33;100328.59;;;4.68;70.83
30724;BME280;17473;52.286;20.930;2023-04-27T01:01:00;100331.47;;;4.73;70.61
30724;BME280;17473;52.286;20.930;2023-04-27T01:03:29;100330.56;;;4.72;70.92
30724;BME280;17473;52.286;20.930;2023-04-27T01:05:56;100341.78;;;4.54;71.80
30724;BME280;17473;52.286;20.930;2023-04-27T01:08:28;100335.56;;;4.52;71.94
30724;BME280;17473;52.286;20.930;2023-04-27T01:10:55;100328.34;;;4.48;72.13
30724;BME280;17473;52.286;20.930;2023-04-27T01:13:22;100344.28;;;4.53;72.26
30724;BME280;17473;52.286;20.930;2023-04-27T01:15:50;100331.31;;;4.54;72.34
30724;BME280;17473;52.286;20.930;2023-04-27T01:18:17;100335.00;;;4.58;72.18
30724;BME280;17473;52.286;20.930;2023-04-27T01:20:44;100346.03;;;4.52;72.47
30724;BME280;17473;52.286;20.930;2023-04-27T01:23:14;100339.31;;;4.58;72.52
30724;BME280;17473;52.286;20.930;2023-04-27T01:25:43;100334.94;;;4.57;72.59
30724;BME280;17473;52.286;20.930;2023-04-27T01:28:10;100339.53;;;4.46;73.08
30724;BME280;17473;52.286;20.930;2023-04-27T01:30:37;100339.09;;;4.38;73.03
30724;BME280;17473;52.286;20.930;2023-04-27T01:33:04;100340.81;;;4.37;73.50
30724;BME280;17473;52.286;20.930;2023-04-27T01:35:32;100343.88;;;4.30;74.25
30724;BME280;17473;52.286;20.930;2023-04-27T01:37:59;100348.38;;;4.48;73.68
30724;BME280;17473;52.286;20.930;2023-04-27T01:40:27;100346.22;;;4.56;73.20
30724;BME280;17473;52.286;20.930;2023-04-27T01:42:54;100342.25;;;4.47;72.98
30724;BME280;17473;52.286;20.930;2023-04-27T01:45:21;100338.66;;;4.45;73.31
30724;BME280;17473;52.286;20.930;2023-04-27T01:47:52;100346.22;;;4.41;73.83
30724;BME280;17473;52.286;20.930;2023-04-27T01:50:19;100348.75;;;4.39;73.75
30724;BME280;17473;52.286;20.930;2023-04-27T01:52:46;100347.75;;;4.37;73.59
30724;BME280;17473;52.286;20.930;2023-04-27T01:55:13;100351.72;;;4.30;74.20
30724;BME280;17473;52.286;20.930;2023-04-27T01:57:40;100348.75;;;4.24;74.64
30724;BME280;17473;52.286;20.930;2023-04-27T02:00:08;100353.19;;;4.25;74.79
30724;BME280;17473;52.286;20.930;2023-04-27T02:02:35;100347.28;;;4.14;75.06
30724;BME280;17473;52.286;20.930;2023-04-27T02:05:02;100354.06;;;4.26;74.85
30724;BME280;17473;52.286;20.930;2023-04-27T02:07:30;100354.78;;;4.23;74.25
30724;BME280;17473;52.286;20.930;2023-04-27T02:09:57;100348.38;;;4.33;74.50
30724;BME280;17473;52.286;20.930;2023-04-27T02:12:24;100354.69;;;4.21;74.42
30724;BME280;17473;52.286;20.930;2023-04-27T02:14:51;100351.00;;;4.18;75.00
30724;BME280;17473;52.286;20.930;2023-04-27T02:17:18;100358.03;;;4.19;74.82
30724;BME280;17473;52.286;20.930;2023-04-27T02:19:45;100357.22;;;4.20;74.87
30724;BME280;17473;52.286;20.930;2023-04-27T02:22:12;100354.53;;;4.18;75.07
30724;BME280;17473;52.286;20.930;2023-04-27T02:24:39;100347.03;;;4.10;75.48
30724;BME280;17473;52.286;20.930;2023-04-27T02:27:06;100347.75;;;4.22;75.09
30724;BME280;17473;52.286;20.930;2023-04-27T02:29:33;100346.75;;;4.20;75.02
30724;BME280;17473;52.286;20.930;2023-04-27T02:32:05;100350.63;;;4.12;75.45
30724;BME280;17473;52.286;20.930;2023-04-27T02:34:33;100344.41;;;4.10;75.21
30724;BME280;17473;52.286;20.930;2023-04-27T02:37:00;100348.22;;;4.15;75.21
30724;BME280;17473;52.286;20.930;2023-04-27T02:39:27;100351.38;;;4.09;75.45
30724;BME280;17473;52.286;20.930;2023-04-27T02:41:54;100359.22;;;4.09;75.68
30724;BME280;17473;52.286;20.930;2023-04-27T02:44:21;100356.31;;;4.04;75.71
30724;BME280;17473;52.286;20.930;2023-04-27T02:46:49;100363.44;;;4.07;75.89
30724;BME280;17473;52.286;20.930;2023-04-27T02:49:16;100367.56;;;4.03;76.17
30724;BME280;17473;52.286;20.930;2023-04-27T02:51:43;100363.97;;;4.01;76.26
30724;BME280;17473;52.286;20.930;2023-04-27T02:54:10;100358.19;;;4.07;75.90
30724;BME280;17473;52.286;20.930;2023-04-27T02:56:37;100357.84;;;4.01;76.25
30724;BME280;17473;52.286;20.930;2023-04-27T02:59:04;100361.19;;;3.98;76.17
30724;BME280;17473;52.286;20.930;2023-04-27T03:01:31;100374.66;;;3.91;76.79
30724;BME280;17473;52.286;20.930;2023-04-27T03:03:58;100358.72;;;3.86;76.88
30724;BME280;17473;52.286;20.930;2023-04-27T03:06:26;100361.53;;;3.89;77.12
30724;BME280;17473;52.286;20.930;2023-04-27T03:08:53;100363.59;;;3.95;76.59
30724;BME280;17473;52.286;20.930;2023-04-27T03:11:20;100361.72;;;3.92;76.48
30724;BME280;17473;52.286;20.930;2023-04-27T03:13:47;100362.06;;;3.99;76.58
30724;BME280;17473;52.286;20.930;2023-04-27T03:16:14;100363.53;;;3.94;76.51
30724;BME280;17473;52.286;20.930;2023-04-27T03:18:41;100362.69;;;3.95;76.21
30724;BME280;17473;52.286;20.930;2023-04-27T03:21:12;100368.28;;;3.86;76.51
30724;BME280;17473;52.286;20.930;2023-04-27T03:23:39;100373.41;;;3.84;76.79
30724;BME280;17473;52.286;20.930;2023-04-27T03:26:08;100365.09;;;3.76;77.37
30724;BME280;17473;52.286;20.930;2023-04-27T03:28:36;100365.38;;;3.81;77.63
30724;BME280;17473;52.286;20.930;2023-04-27T03:31:05;100373.59;;;3.87;77.10
30724;BME280;17473;52.286;20.930;2023-04-27T03:33:33;100369.91;;;3.99;76.83
30724;BME280;17473;52.286;20.930;2023-04-27T03:36:01;100372.53;;;3.99;76.78
30724;BME280;17473;52.286;20.930;2023-04-27T03:38:28;100365.44;;;4.11;76.07
30724;BME280;17473;52.286;20.930;2023-04-27T03:40:56;100368.03;;;4.11;76.13
30724;BME280;17473;52.286;20.930;2023-04-27T03:43:24;100371.75;;;4.15;75.83
30724;BME280;17473;52.286;20.930;2023-04-27T03:45:52;100378.69;;;4.44;74.55
30724;BME280;17473;52.286;20.930;2023-04-27T03:48:19;100377.75;;;4.59;73.75
30724;BME280;17473;52.286;20.930;2023-04-27T03:50:46;100386.41;;;4.58;73.71
30724;BME280;17473;52.286;20.930;2023-04-27T03:53:14;100386.63;;;5.24;71.62
30724;BME280;17473;52.286;20.930;2023-04-27T03:55:43;100391.00;;;6.22;66.91
30724;BME280;17473;52.286;20.930;2023-04-27T03:58:10;100392.06;;;6.79;63.96
30724;BME280;17473;52.286;20.930;2023-04-27T04:00:38;100399.03;;;7.52;61.04
30724;BME280;17473;52.286;20.930;2023-04-27T04:03:06;100394.13;;;7.99;58.93
30724;BME280;17473;52.286;20.930;2023-04-27T04:05:34;100400.41;;;8.63;56.75
30724;BME280;17473;52.286;20.930;2023-04-27T04:08:01;100402.50;;;9.38;54.17
30724;BME280;17473;52.286;20.930;2023-04-27T04:10:28;100393.88;;;10.14;51.68
30724;BME280;17473;52.286;20.930;2023-04-27T04:12:55;100391.94;;;10.86;49.43
30724;BME280;17473;52.286;20.930;2023-04-27T04:15:22;100386.47;;;11.66;47.19
30724;BME280;17473;52.286;20.930;2023-04-27T04:17:49;100398.66;;;12.54;45.31
30724;BME280;17473;52.286;20.930;2023-04-27T04:20:17;100397.66;;;13.24;43.44
30724;BME280;17473;52.286;20.930;2023-04-27T04:22:44;100406.00;;;13.79;41.96
30724;BME280;17473;52.286;20.930;2023-04-27T04:25:11;100397.75;;;13.65;41.83
30724;BME280;17473;52.286;20.930;2023-04-27T04:27:39;100406.44;;;11.26;46.10
30724;BME280;17473;52.286;20.930;2023-04-27T04:30:07;100405.41;;;9.45;51.19
30724;BME280;17473;52.286;20.930;2023-04-27T04:32:34;100406.78;;;8.70;53.91
30724;BME280;17473;52.286;20.930;2023-04-27T04:35:07;100404.00;;;8.24;55.93
30724;BME280;17473;52.286;20.930;2023-04-27T04:37:34;100404.09;;;8.47;55.85
30724;BME280;17473;52.286;20.930;2023-04-27T04:40:06;100407.91;;;10.89;50.22
30724;BME280;17473;52.286;20.930;2023-04-27T04:42:37;100403.97;;;14.59;41.38
30724;BME280;17473;52.286;20.930;2023-04-27T04:45:05;100392.03;;;17.04;36.41
30724;BME280;17473;52.286;20.930;2023-04-27T04:47:33;100393.50;;;18.06;34.10
30724;BME280;17473;52.286;20.930;2023-04-27T04:50:00;100398.94;;;19.41;32.05
30724;BME280;17473;52.286;20.930;2023-04-27T04:52:28;100391.59;;;20.06;30.23
30724;BME280;17473;52.286;20.930;2023-04-27T04:54:55;100394.81;;;20.61;29.44
30724;BME280;17473;52.286;20.930;2023-04-27T04:57:22;100393.50;;;21.13;28.84
30724;BME280;17473;52.286;20.930;2023-04-27T04:59:49;100392.16;;;21.61;27.61
30724;BME280;17473;52.286;20.930;2023-04-27T05:02:16;100400.53;;;22.09;27.04
30724;BME280;17473;52.286;20.930;2023-04-27T05:04:43;100401.88;;;22.41;26.46
30724;BME280;17473;52.286;20.930;2023-04-27T05:07:11;100404.38;;;23.10;25.68
30724;BME280;17473;52.286;20.930;2023-04-27T05:09:41;100403.47;;;24.05;24.31
30724;BME280;17473;52.286;20.930;2023-04-27T05:12:08;100402.78;;;23.95;24.41
30724;BME280;17473;52.286;20.930;2023-04-27T05:14:35;100410.56;;;24.09;24.11
30724;BME280;17473;52.286;20.930;2023-04-27T05:17:03;100413.91;;;24.60;23.62
30724;BME280;17473;52.286;20.930;2023-04-27T05:19:30;100417.16;;;25.12;23.38
30724;BME280;17473;52.286;20.930;2023-04-27T05:21:58;100415.28;;;25.50;22.58
30724;BME280;17473;52.286;20.930;2023-04-27T05:24:25;100411.63;;;25.83;22.39
30724;BME280;17473;52.286;20.930;2023-04-27T05:26:53;100414.00;;;26.55;21.70
30724;BME280;17473;52.286;20.930;2023-04-27T05:29:21;100412.81;;;26.92;21.22
30724;BME280;17473;52.286;20.930;2023-04-27T05:31:48;100418.19;;;27.47;20.49
30724;BME280;17473;52.286;20.930;2023-04-27T05:34:15;100415.94;;;27.33;20.57
30724;BME280;17473;52.286;20.930;2023-04-27T05:36:42;100420.38;;;25.61;22.29
30724;BME280;17473;52.286;20.930;2023-04-27T05:39:09;100421.19;;;25.65;22.99
30724;BME280;17473;52.286;20.930;2023-04-27T05:41:37;100417.22;;;24.73;23.33
30724;BME280;17473;52.286;20.930;2023-04-27T05:44:04;100416.56;;;24.63;23.18
30724;BME280;17473;52.286;20.930;2023-04-27T05:46:32;100423.75;;;24.62;23.79
30724;BME280;17473;52.286;20.930;2023-04-27T05:48:59;100428.91;;;26.97;21.41
30724;BME280;17473;52.286;20.930;2023-04-27T05:51:27;100418.41;;;27.90;20.26
30724;BME280;17473;52.286;20.930;2023-04-27T05:53:54;100413.38;;;28.03;20.35
30724;BME280;17473;52.286;20.930;2023-04-27T05:56:21;100423.38;;;28.95;19.56
30724;BME280;17473;52.286;20.930;2023-04-27T05:58:48;100422.88;;;29.69;19.21
30724;BME280;17473;52.286;20.930;2023-04-27T06:01:16;100425.59;;;30.85;18.14
30724;BME280;17473;52.286;20.930;2023-04-27T06:03:43;100428.88;;;30.36;18.20
30724;BME280;17473;52.286;20.930;2023-04-27T06:06:10;100433.25;;;30.59;18.28
30724;BME280;17473;52.286;20.930;2023-04-27T06:08:37;100426.19;;;32.13;16.85
30724;BME280;17473;52.286;20.930;2023-04-27T06:11:05;100425.06;;;30.59;18.10
30724;BME280;17473;52.286;20.930;2023-04-27T06:13:32;100425.25;;;30.17;18.48
30724;BME280;17473;52.286;20.930;2023-04-27T06:16:00;100422.72;;;29.53;18.81
30724;BME280;17473;52.286;20.930;2023-04-27T06:18:27;100426.09;;;30.94;17.40
30724;BME280;17473;52.286;20.930;2023-04-27T06:21:01;100423.69;;;29.71;18.55
30724;BME280;17473;52.286;20.930;2023-04-27T06:23:28;100424.16;;;30.59;17.44
30724;BME280;17473;52.286;20.930;2023-04-27T06:25:55;100423.16;;;31.51;17.32
30724;BME280;17473;52.286;20.930;2023-04-27T06:28:24;100427.75;;;32.51;16.78
30724;BME280;17473;52.286;20.930;2023-04-27T06:30:52;100426.78;;;33.15;16.25
30724;BME280;17473;52.286;20.930;2023-04-27T06:33:20;100425.97;;;32.50;16.38
30724;BME280;17473;52.286;20.930;2023-04-27T06:35:47;100428.19;;;32.27;16.29
30724;BME280;17473;52.286;20.930;2023-04-27T06:38:14;100433.44;;;32.30;16.17
30724;BME280;17473;52.286;20.930;2023-04-27T06:40:42;100431.28;;;32.53;16.08
30724;BME280;17473;52.286;20.930;2023-04-27T06:43:10;100433.19;;;32.99;15.56
30724;BME280;17473;52.286;20.930;2023-04-27T06:45:37;100435.25;;;32.14;16.59
30724;BME280;17473;52.286;20.930;2023-04-27T06:48:04;100439.47;;;32.04;16.17
30724;BME280;17473;52.286;20.930;2023-04-27T06:50:31;100444.25;;;31.65;16.48
30724;BME280;17473;52.286;20.930;2023-04-27T06:52:58;100432.38;;;32.97;16.02
30724;BME280;17473;52.286;20.930;2023-04-27T06:55:25;100442.88;;;31.91;16.50
30724;BME280;17473;52.286;20.930;2023-04-27T06:57:52;100434.38;;;32.13;16.12
30724;BME280;17473;52.286;20.930;2023-04-27T07:00:20;100432.53;;;32.14;16.60
30724;BME280;17473;52.286;20.930;2023-04-27T07:02:47;100440.91;;;31.77;16.55
30724;BME280;17473;52.286;20.930;2023-04-27T07:05:14;100442.41;;;31.13;17.13
30724;BME280;17473;52.286;20.930;2023-04-27T07:07:42;100443.78;;;31.57;16.96
30724;BME280;17473;52.286;20.930;2023-04-27T07:10:09;100437.94;;;31.64;16.79
30724;BME280;17473;52.286;20.930;2023-04-27T07:12:37;100439.56;;;32.36;16.71
30724;BME280;17473;52.286;20.930;2023-04-27T07:15:05;100440.72;;;33.10;16.02
30724;BME280;17473;52.286;20.930;2023-04-27T07:17:33;100443.88;;;32.72;16.17
30724;BME280;17473;52.286;20.930;2023-04-27T07:20:04;100445.25;;;34.01;15.40
30724;BME280;17473;52.286;20.930;2023-04-27T07:22:32;100455.56;;;31.22;16.91
30724;BME280;17473;52.286;20.930;2023-04-27T07:24:59;100448.16;;;30.32;17.93
30724;BME280;17473;52.286;20.930;2023-04-27T07:27:26;100456.22;;;31.27;17.44
30724;BME280;17473;52.286;20.930;2023-04-27T07:29:53;100452.38;;;29.78;18.27
30724;BME280;17473;52.286;20.930;2023-04-27T07:32:21;100458.34;;;29.87;18.64
30724;BME280;17473;52.286;20.930;2023-04-27T07:34:48;100458.94;;;29.54;18.15
30724;BME280;17473;52.286;20.930;2023-04-27T07:37:21;100456.28;;;29.52;19.04
30724;BME280;17473;52.286;20.930;2023-04-27T07:39:49;100452.25;;;28.04;19.88
30724;BME280;17473;52.286;20.930;2023-04-27T07:42:19;100455.09;;;28.01;20.07
30724;BME280;17473;52.286;20.930;2023-04-27T07:44:48;100455.38;;;28.64;19.89
30724;BME280;17473;52.286;20.930;2023-04-27T07:47:16;100450.91;;;27.92;20.09
30724;BME280;17473;52.286;20.930;2023-04-27T07:49:46;100451.72;;;27.16;20.44
30724;BME280;17473;52.286;20.930;2023-04-27T07:52:14;100456.50;;;27.62;20.38
30724;BME280;17473;52.286;20.930;2023-04-27T07:54:41;100451.78;;;27.92;19.57
30724;BME280;17473;52.286;20.930;2023-04-27T07:57:10;100451.63;;;25.37;21.88
30724;BME280;17473;52.286;20.930;2023-04-27T07:59:38;100455.84;;;26.15;21.36
30724;BME280;17473;52.286;20.930;2023-04-27T08:02:05;100456.38;;;26.56;21.03
30724;BME280;17473;52.286;20.930;2023-04-27T08:04:46;100458.06;;;26.60;20.78
30724;BME280;17473;52.286;20.930;2023-04-27T08:07:15;100451.50;;;26.07;22.05
30724;BME280;17473;52.286;20.930;2023-04-27T08:09:43;100454.44;;;26.31;21.48
30724;BME280;17473;52.286;20.930;2023-04-27T08:12:10;100445.88;;;26.15;21.53
30724;BME280;17473;52.286;20.930;2023-04-27T08:14:37;100448.28;;;26.26;21.36
30724;BME280;17473;52.286;20.930;2023-04-27T08:17:04;100451.53;;;24.66;22.46
30724;BME280;17473;52.286;20.930;2023-04-27T08:19:32;100453.72;;;24.07;23.79
30724;BME280;17473;52.286;20.930;2023-04-27T08:21:59;100465.31;;;22.58;25.74
30724;BME280;17473;52.286;20.930;2023-04-27T08:24:26;100462.22;;;21.34;26.95
30724;BME280;17473;52.286;20.930;2023-04-27T08:26:53;100458.03;;;21.93;26.16
30724;BME280;17473;52.286;20.930;2023-04-27T08:29:20;100449.84;;;22.05;25.99
30724;BME280;17473;52.286;20.930;2023-04-27T08:31:56;100466.63;;;21.43;27.06
30724;BME280;17473;52.286;20.930;2023-04-27T08:34:24;100457.34;;;20.71;28.33
30724;BME280;17473;52.286;20.930;2023-04-27T08:36:51;100465.78;;;19.98;27.96
30724;BME280;17473;52.286;20.930;2023-04-27T08:39:20;100473.03;;;19.01;27.99
30724;BME280;17473;52.286;20.930;2023-04-27T08:41:47;100468.50;;;18.91;27.96
30724;BME280;17473;52.286;20.930;2023-04-27T08:44:14;100464.78;;;18.16;28.17
30724;BME280;17473;52.286;20.930;2023-04-27T08:46:43;100474.53;;;18.02;29.50
30724;BME280;17473;52.286;20.930;2023-04-27T08:49:10;100469.97;;;17.87;30.11
30724;BME280;17473;52.286;20.930;2023-04-27T08:51:39;100475.41;;;18.04;29.66
30724;BME280;17473;52.286;20.930;2023-04-27T08:54:07;100470.63;;;17.48;30.81
30724;BME280;17473;52.286;20.930;2023-04-27T08:56:34;100474.31;;;16.64;31.74
30724;BME280;17473;52.286;20.930;2023-04-27T08:59:01;100477.97;;;16.72;32.16
30724;BME280;17473;52.286;20.930;2023-04-27T09:01:33;100479.88;;;16.89;31.39
30724;BME280;17473;52.286;20.930;2023-04-27T09:04:00;100480.94;;;17.02;31.81
30724;BME280;17473;52.286;20.930;2023-04-27T09:06:33;100482.50;;;16.84;32.24
30724;BME280;17473;52.286;20.930;2023-04-27T09:09:01;100479.00;;;16.90;32.04
30724;BME280;17473;52.286;20.930;2023-04-27T09:11:39;100476.88;;;16.55;32.21
30724;BME280;17473;52.286;20.930;2023-04-27T09:14:18;100480.94;;;16.20;32.24
30724;BME280;17473;52.286;20.930;2023-04-27T09:16:56;100481.19;;;16.42;31.63
30724;BME280;17473;52.286;20.930;2023-04-27T09:19:29;100492.56;;;15.62;32.41
30724;BME280;17473;52.286;20.930;2023-04-27T09:22:08;100482.34;;;15.32;32.86
30724;BME280;17473;52.286;20.930;2023-04-27T09:24:37;100477.09;;;15.38;32.68
30724;BME280;17473;52.286;20.930;2023-04-27T09:27:06;100482.66;;;15.54;32.65
30724;BME280;17473;52.286;20.930;2023-04-27T09:29:36;100481.66;;;15.45;32.93
30724;BME280;17473;52.286;20.930;2023-04-27T09:32:17;100490.25;;;15.29;33.66
30724;BME280;17473;52.286;20.930;2023-04-27T09:34:46;100478.53;;;15.14;33.75
30724;BME280;17473;52.286;20.930;2023-04-27T09:37:14;100477.69;;;15.18;33.50
30724;BME280;17473;52.286;20.930;2023-04-27T09:39:42;100477.69;;;15.20;33.76
30724;BME280;17473;52.286;20.930;2023-04-27T09:42:11;100480.13;;;15.06;33.74
30724;BME280;17473;52.286;20.930;2023-04-27T09:44:38;100476.25;;;14.87;33.98
30724;BME280;17473;52.286;20.930;2023-04-27T09:47:05;100472.09;;;15.01;34.00
30724;BME280;17473;52.286;20.930;2023-04-27T09:49:34;100472.72;;;14.40;35.16
30724;BME280;17473;52.286;20.930;2023-04-27T09:52:02;100474.38;;;14.80;34.88
30724;BME280;17473;52.286;20.930;2023-04-27T09:54:32;100476.06;;;14.75;35.08
30724;BME280;17473;52.286;20.930;2023-04-27T10:00:22;100475.03;;;14.68;34.85
30724;BME280;17473;52.286;20.930;2023-04-27T10:08:34;100481.50;;;14.82;34.47
30724;BME280;17473;52.286;20.930;2023-04-27T10:11:13;100476.47;;;14.52;34.96
30724;BME280;17473;52.286;20.930;2023-04-27T10:13:51;100481.69;;;14.47;35.13
30724;BME280;17473;52.286;20.930;2023-04-27T10:16:21;100484.72;;;14.66;35.35
30724;BME280;17473;52.286;20.930;2023-04-27T10:18:54;100483.44;;;14.91;35.12
30724;BME280;17473;52.286;20.930;2023-04-27T10:21:22;100485.41;;;15.01;35.32
30724;BME280;17473;52.286;20.930;2023-04-27T10:23:51;100486.16;;;14.48;35.28
30724;BME280;17473;52.286;20.930;2023-04-27T10:26:26;100479.03;;;14.47;34.91
30724;BME280;17473;52.286;20.930;2023-04-27T10:29:07;100479.03;;;14.47;35.35
30724;BME280;17473;52.286;20.930;2023-04-27T10:31:35;100472.81;;;14.91;34.49
30724;BME280;17473;52.286;20.930;2023-04-27T10:34:16;100474.44;;;15.38;34.36
30724;BME280;17473;52.286;20.930;2023-04-27T10:36:47;100475.84;;;15.73;33.43
30724;BME280;17473;52.286;20.930;2023-04-27T10:39:19;100472.16;;;15.63;33.41
30724;BME280;17473;52.286;20.930;2023-04-27T10:41:58;100475.03;;;15.18;33.49
30724;BME280;17473;52.286;20.930;2023-04-27T10:44:28;100479.84;;;15.44;33.91
30724;BME280;17473;52.286;20.930;2023-04-27T10:47:01;100467.88;;;15.73;33.53
30724;BME280;17473;52.286;20.930;2023-04-27T10:49:29;100478.88;;;15.99;33.34
30724;BME280;17473;52.286;20.930;2023-04-27T10:51:57;100493.94;;;15.36;33.81
30724;BME280;17473;52.286;20.930;2023-04-27T10:54:28;100481.31;;;15.24;33.98
30724;BME280;17473;52.286;20.930;2023-04-27T10:57:07;100489.72;;;14.98;34.47
30724;BME280;17473;52.286;20.930;2023-04-27T10:59:47;100487.88;;;14.46;34.97
30724;BME280;17473;52.286;20.930;2023-04-27T11:02:16;100500.94;;;14.34;35.61
30724;BME280;17473;52.286;20.930;2023-04-27T11:04:43;100493.28;;;14.08;36.15
30724;BME280;17473;52.286;20.930;2023-04-27T11:07:10;100492.94;;;13.89;35.41
30724;BME280;17473;52.286;20.930;2023-04-27T11:09:38;100503.66;;;13.56;33.96
30724;BME280;17473;52.286;20.930;2023-04-27T11:12:11;100502.47;;;13.43;34.08
30724;BME280;17473;52.286;20.930;2023-04-27T11:14:39;100502.38;;;13.40;33.68
30724;BME280;17473;52.286;20.930;2023-04-27T11:17:06;100498.91;;;13.42;33.46
30724;BME280;17473;52.286;20.930;2023-04-27T11:19:47;100508.88;;;13.51;33.24
30724;BME280;17473;52.286;20.930;2023-04-27T11:22:15;100505.94;;;13.40;33.55
30724;BME280;17473;52.286;20.930;2023-04-27T11:24:49;100509.22;;;13.31;33.68
30724;BME280;17473;52.286;20.930;2023-04-27T11:27:17;100497.09;;;13.40;33.67
30724;BME280;17473;52.286;20.930;2023-04-27T11:29:44;100510.06;;;13.66;33.67
30724;BME280;17473;52.286;20.930;2023-04-27T11:32:22;100501.94;;;13.58;33.92
30724;BME280;17473;52.286;20.930;2023-04-27T11:34:53;100498.72;;;13.73;34.10
30724;BME280;17473;52.286;20.930;2023-04-27T11:37:25;100495.94;;;14.08;33.80
30724;BME280;17473;52.286;20.930;2023-04-27T11:39:54;100492.34;;;14.04;33.93
30724;BME280;17473;52.286;20.930;2023-04-27T11:42:27;100499.84;;;14.25;33.32
30724;BME280;17473;52.286;20.930;2023-04-27T11:47:28;100496.16;;;14.17;33.30
30724;BME280;17473;52.286;20.930;2023-04-27T11:49:59;100494.59;;;14.70;33.12
30724;BME280;17473;52.286;20.930;2023-04-27T11:52:31;100492.66;;;14.64;33.34
30724;BME280;17473;52.286;20.930;2023-04-27T11:55:01;100485.38;;;14.54;33.22
30724;BME280;17473;52.286;20.930;2023-04-27T11:57:31;100485.25;;;14.48;33.10
30724;BME280;17473;52.286;20.930;2023-04-27T12:00:00;100490.22;;;14.75;33.42
30724;BME280;17473;52.286;20.930;2023-04-27T12:02:29;100502.56;;;14.70;33.11
30724;BME280;17473;52.286;20.930;2023-04-27T12:04:58;100505.78;;;14.56;32.50
30724;BME280;17473;52.286;20.930;2023-04-27T12:07:25;100499.63;;;14.58;32.15
30724;BME280;17473;52.286;20.930;2023-04-27T12:09:53;100493.16;;;14.45;31.83
30724;BME280;17473;52.286;20.930;2023-04-27T12:12:20;100504.22;;;14.22;32.21
30724;BME280;17473;52.286;20.930;2023-04-27T12:14:50;100493.06;;;14.40;31.78
30724;BME280;17473;52.286;20.930;2023-04-27T12:17:18;100501.53;;;13.79;32.55
30724;BME280;17473;52.286;20.930;2023-04-27T12:19:45;100501.53;;;13.79;32.99
30724;BME280;17473;52.286;20.930;2023-04-27T12:22:12;100503.28;;;13.78;33.24
30724;BME280;17473;52.286;20.930;2023-04-27T12:24:40;100505.47;;;13.57;33.68
30724;BME280;17473;52.286;20.930;2023-04-27T12:27:07;100507.91;;;13.48;33.92
30724;BME280;17473;52.286;20.930;2023-04-27T12:29:34;100506.25;;;13.54;33.88
30724;BME280;17473;52.286;20.930;2023-04-27T12:32:01;100501.78;;;13.91;34.00
30724;BME280;17473;52.286;20.930;2023-04-27T12:34:28;100503.97;;;14.09;33.51
30724;BME280;17473;52.286;20.930;2023-04-27T12:36:55;100496.66;;;14.42;32.88
30724;BME280;17473;52.286;20.930;2023-04-27T12:39:23;100501.84;;;14.36;32.81
30724;BME280;17473;52.286;20.930;2023-04-27T12:41:53;100499.25;;;14.85;32.44
30724;BME280;17473;52.286;20.930;2023-04-27T12:44:20;100496.84;;;14.99;32.12
30724;BME280;17473;52.286;20.930;2023-04-27T12:46:48;100500.50;;;15.04;31.97
30724;BME280;17473;52.286;20.930;2023-04-27T12:49:16;100501.06;;;14.86;31.61
30724;BME280;17473;52.286;20.930;2023-04-27T12:51:44;100496.16;;;15.11;31.54
30724;BME280;17473;52.286;20.930;2023-04-27T12:54:13;100503.09;;;15.01;31.61
30724;BME280;17473;52.286;20.930;2023-04-27T12:56:41;100494.78;;;14.81;32.05
30724;BME280;17473;52.286;20.930;2023-04-27T12:59:08;100502.94;;;14.93;32.02
30724;BME280;17473;52.286;20.930;2023-04-27T13:01:35;100504.31;;;14.69;31.91